sensor_id;sensor_type;location;lat;lon;timestamp;temperature;humidity
71627;DHT22;59475;52.464;13.590;2023-06-14T00:02:16;12.97;76.40
71627;DHT22;59475;52.464;13.590;2023-06-14T00:04:41;12.91;76.74
71627;DHT22;59475;52.464;13.590;2023-06-14T00:07:08;12.84;77.02
71627;DHT22;59475;52.464;13.590;2023-06-14T00:09:35;12.87;77.20
71627;DHT22;59475;52.464;13.590;2023-06-14T00:12:01;12.77;77.50
71627;DHT22;59475;52.464;13.590;2023-06-14T00:14:26;12.76;77.74
71627;DHT22;59475;52.464;13.590;2023-06-14T00:16:51;12.73;78.10
71627;DHT22;59475;52.464;13.590;2023-06-14T00:19:24;12.68;78.42
71627;DHT22;59475;52.464;13.590;2023-06-14T00:21:49;12.68;78.75
71627;DHT22;59475;52.464;13.590;2023-06-14T00:24:15;12.67;78.94
71627;DHT22;59475;52.464;13.590;2023-06-14T00:26:40;12.71;78.74
71627;DHT22;59475;52.464;13.590;2023-06-14T00:29:06;12.70;78.71
71627;DHT22;59475;52.464;13.590;2023-06-14T00:31:31;12.64;78.99
71627;DHT22;59475;52.464;13.590;2023-06-14T00:33:56;12.68;78.70
71627;DHT22;59475;52.464;13.590;2023-06-14T00:36:22;12.68;79.10
71627;DHT22;59475;52.464;13.590;2023-06-14T00:38:47;12.65;79.23
71627;DHT22;59475;52.464;13.590;2023-06-14T00:41:12;12.54;79.33
71627;DHT22;59475;52.464;13.590;2023-06-14T00:43:38;12.54;79.67
71627;DHT22;59475;52.464;13.590;2023-06-14T00:46:03;12.50;79.85
71627;DHT22;59475;52.464;13.590;2023-06-14T00:48:29;12.50;79.64
71627;DHT22;59475;52.464;13.590;2023-06-14T00:50:56;12.50;79.93
71627;DHT22;59475;52.464;13.590;2023-06-14T00:53:23;12.49;80.19
71627;DHT22;59475;52.464;13.590;2023-06-14T00:55:50;12.39;80.52
71627;DHT22;59475;52.464;13.590;2023-06-14T00:58:15;12.37;80.75
71627;DHT22;59475;52.464;13.590;2023-06-14T01:00:41;12.32;81.00
71627;DHT22;59475;52.464;13.590;2023-06-14T01:03:07;12.25;81.29
71627;DHT22;59475;52.464;13.590;2023-06-14T01:05:33;12.16;81.62
71627;DHT22;59475;52.464;13.590;2023-06-14T01:13:34;12.14;81.61
71627;DHT22;59475;52.464;13.590;2023-06-14T01:16:01;12.15;81.39
71627;DHT22;59475;52.464;13.590;2023-06-14T01:18:28;12.18;81.32
71627;DHT22;59475;52.464;13.590;2023-06-14T01:20:55;12.16;81.58
71627;DHT22;59475;52.464;13.590;2023-06-14T01:23:21;12.12;81.89
71627;DHT22;59475;52.464;13.590;2023-06-14T01:25:48;12.09;81.86
71627;DHT22;59475;52.464;13.590;2023-06-14T01:28:19;12.08;81.73
71627;DHT22;59475;52.464;13.590;2023-06-14T01:30:47;12.05;81.90
71627;DHT22;59475;52.464;13.590;2023-06-14T01:33:21;11.99;82.67
71627;DHT22;59475;52.464;13.590;2023-06-14T01:35:48;11.98;82.34
71627;DHT22;59475;52.464;13.590;2023-06-14T01:38:15;11.94;82.45
71627;DHT22;59475;52.464;13.590;2023-06-14T01:40:45;11.87;83.32
71627;DHT22;59475;52.464;13.590;2023-06-14T01:43:16;11.82;83.47
71627;DHT22;59475;52.464;13.590;2023-06-14T01:45:42;11.77;83.95
71627;DHT22;59475;52.464;13.590;2023-06-14T01:48:08;11.73;84.45
71627;DHT22;59475;52.464;13.590;2023-06-14T01:50:34;11.73;84.63
71627;DHT22;59475;52.464;13.590;2023-06-14T01:52:59;11.69;84.89
71627;DHT22;59475;52.464;13.590;2023-06-14T01:55:25;11.66;84.97
71627;DHT22;59475;52.464;13.590;2023-06-14T01:57:54;11.64;84.97
71627;DHT22;59475;52.464;13.590;2023-06-14T02:00:20;11.67;85.02
71627;DHT22;59475;52.464;13.590;2023-06-14T02:02:46;11.69;84.93
71627;DHT22;59475;52.464;13.590;2023-06-14T02:05:12;11.64;85.34
71627;DHT22;59475;52.464;13.590;2023-06-14T02:07:37;11.67;85.54
71627;DHT22;59475;52.464;13.590;2023-06-14T02:10:04;11.64;85.65
71627;DHT22;59475;52.464;13.590;2023-06-14T02:12:29;11.63;85.79
71627;DHT22;59475;52.464;13.590;2023-06-14T02:14:55;11.57;85.86
71627;DHT22;59475;52.464;13.590;2023-06-14T02:17:22;11.57;85.97
71627;DHT22;59475;52.464;13.590;2023-06-14T02:19:47;11.57;86.21
71627;DHT22;59475;52.464;13.590;2023-06-14T02:22:14;11.53;86.37
71627;DHT22;59475;52.464;13.590;2023-06-14T02:24:40;11.54;86.45
71627;DHT22;59475;52.464;13.590;2023-06-14T02:27:06;11.54;86.88
71627;DHT22;59475;52.464;13.590;2023-06-14T02:29:31;11.53;86.80
71627;DHT22;59475;52.464;13.590;2023-06-14T02:31:57;11.54;87.09
71627;DHT22;59475;52.464;13.590;2023-06-14T02:34:22;11.56;87.04
71627;DHT22;59475;52.464;13.590;2023-06-14T02:36:48;11.53;87.21
71627;DHT22;59475;52.464;13.590;2023-06-14T02:39:13;11.53;87.08
71627;DHT22;59475;52.464;13.590;2023-06-14T02:41:39;11.51;87.31
71627;DHT22;59475;52.464;13.590;2023-06-14T02:44:05;11.54;87.44
71627;DHT22;59475;52.464;13.590;2023-06-14T02:46:31;11.53;87.61
71627;DHT22;59475;52.464;13.590;2023-06-14T02:48:56;11.50;87.67
71627;DHT22;59475;52.464;13.590;2023-06-14T02:51:22;11.53;87.56
71627;DHT22;59475;52.464;13.590;2023-06-14T02:53:47;11.49;87.77
71627;DHT22;59475;52.464;13.590;2023-06-14T02:56:12;11.49;87.86
71627;DHT22;59475;52.464;13.590;2023-06-14T02:58:38;11.47;87.80
71627;DHT22;59475;52.464;13.590;2023-06-14T03:01:05;11.47;87.77
71627;DHT22;59475;52.464;13.590;2023-06-14T03:03:33;11.49;88.01
71627;DHT22;59475;52.464;13.590;2023-06-14T03:05:59;11.46;88.05
71627;DHT22;59475;52.464;13.590;2023-06-14T03:08:30;11.53;87.86
71627;DHT22;59475;52.464;13.590;2023-06-14T03:10:56;11.53;87.67
71627;DHT22;59475;52.464;13.590;2023-06-14T03:13:22;11.57;87.37
71627;DHT22;59475;52.464;13.590;2023-06-14T03:15:48;11.61;87.28
71627;DHT22;59475;52.464;13.590;2023-06-14T03:18:16;11.59;87.35
71627;DHT22;59475;52.464;13.590;2023-06-14T03:20:41;11.61;87.22
71627;DHT22;59475;52.464;13.590;2023-06-14T03:23:11;11.60;87.10
71627;DHT22;59475;52.464;13.590;2023-06-14T03:25:37;11.61;87.06
71627;DHT22;59475;52.464;13.590;2023-06-14T03:28:04;11.64;86.97
71627;DHT22;59475;52.464;13.590;2023-06-14T03:30:30;11.59;87.48
71627;DHT22;59475;52.464;13.590;2023-06-14T03:32:56;11.54;87.55
71627;DHT22;59475;52.464;13.590;2023-06-14T03:35:23;11.56;87.61
71627;DHT22;59475;52.464;13.590;2023-06-14T03:37:48;11.60;87.37
71627;DHT22;59475;52.464;13.590;2023-06-14T03:40:15;11.60;87.23
71627;DHT22;59475;52.464;13.590;2023-06-14T03:42:41;11.64;87.13
71627;DHT22;59475;52.464;13.590;2023-06-14T03:45:07;11.64;87.00
71627;DHT22;59475;52.464;13.590;2023-06-14T03:47:33;11.73;86.83
71627;DHT22;59475;52.464;13.590;2023-06-14T03:49:59;11.78;86.71
71627;DHT22;59475;52.464;13.590;2023-06-14T03:52:25;11.82;86.90
71627;DHT22;59475;52.464;13.590;2023-06-14T03:54:51;11.91;87.07
71627;DHT22;59475;52.464;13.590;2023-06-14T03:57:17;12.02;87.23
71627;DHT22;59475;52.464;13.590;2023-06-14T03:59:42;12.19;87.01
71627;DHT22;59475;52.464;13.590;2023-06-14T04:02:08;12.32;86.59
71627;DHT22;59475;52.464;13.590;2023-06-14T04:04:34;12.46;86.17
71627;DHT22;59475;52.464;13.590;2023-06-14T04:07:00;12.57;86.05
71627;DHT22;59475;52.464;13.590;2023-06-14T04:09:28;12.61;85.82
71627;DHT22;59475;52.464;13.590;2023-06-14T04:11:54;12.67;85.47
71627;DHT22;59475;52.464;13.590;2023-06-14T04:14:20;12.76;85.18
71627;DHT22;59475;52.464;13.590;2023-06-14T04:16:49;12.83;85.13
71627;DHT22;59475;52.464;13.590;2023-06-14T04:19:15;12.88;85.01
71627;DHT22;59475;52.464;13.590;2023-06-14T04:21:41;12.92;85.07
71627;DHT22;59475;52.464;13.590;2023-06-14T04:24:07;13.01;84.82
71627;DHT22;59475;52.464;13.590;2023-06-14T04:26:42;13.09;84.26
71627;DHT22;59475;52.464;13.590;2023-06-14T04:29:10;13.15;84.14
71627;DHT22;59475;52.464;13.590;2023-06-14T04:31:40;13.25;83.87
71627;DHT22;59475;52.464;13.590;2023-06-14T04:34:05;13.28;83.78
71627;DHT22;59475;52.464;13.590;2023-06-14T04:36:34;13.36;83.59
71627;DHT22;59475;52.464;13.590;2023-06-14T04:39:02;13.46;83.37
71627;DHT22;59475;52.464;13.590;2023-06-14T04:41:31;13.53;83.05
71627;DHT22;59475;52.464;13.590;2023-06-14T04:43:57;13.59;83.15
71627;DHT22;59475;52.464;13.590;2023-06-14T04:46:30;13.70;83.15
71627;DHT22;59475;52.464;13.590;2023-06-14T04:48:57;13.78;82.11
71627;DHT22;59475;52.464;13.590;2023-06-14T04:51:23;13.81;82.11
71627;DHT22;59475;52.464;13.590;2023-06-14T04:53:57;13.90;81.62
71627;DHT22;59475;52.464;13.590;2023-06-14T04:56:24;14.05;81.54
71627;DHT22;59475;52.464;13.590;2023-06-14T04:58:50;14.15;80.95
71627;DHT22;59475;52.464;13.590;2023-06-14T05:01:15;14.15;80.77
71627;DHT22;59475;52.464;13.590;2023-06-14T05:03:41;14.17;80.84
71627;DHT22;59475;52.464;13.590;2023-06-14T05:06:06;14.26;80.82
71627;DHT22;59475;52.464;13.590;2023-06-14T05:08:32;14.35;80.36
71627;DHT22;59475;52.464;13.590;2023-06-14T05:10:57;14.45;80.13
71627;DHT22;59475;52.464;13.590;2023-06-14T05:13:23;14.52;79.99
71627;DHT22;59475;52.464;13.590;2023-06-14T05:15:48;14.58;80.05
71627;DHT22;59475;52.464;13.590;2023-06-14T05:18:14;14.73;79.38
71627;DHT22;59475;52.464;13.590;2023-06-14T05:20:41;14.81;78.91
71627;DHT22;59475;52.464;13.590;2023-06-14T05:23:09;14.91;78.57
71627;DHT22;59475;52.464;13.590;2023-06-14T05:25:41;14.91;78.00
71627;DHT22;59475;52.464;13.590;2023-06-14T05:28:06;14.91;78.45
71627;DHT22;59475;52.464;13.590;2023-06-14T05:30:32;14.98;78.30
71627;DHT22;59475;52.464;13.590;2023-06-14T05:32:58;15.06;78.13
71627;DHT22;59475;52.464;13.590;2023-06-14T05:35:24;15.12;77.80
71627;DHT22;59475;52.464;13.590;2023-06-14T05:37:52;15.14;77.48
71627;DHT22;59475;52.464;13.590;2023-06-14T05:40:17;15.17;77.58
71627;DHT22;59475;52.464;13.590;2023-06-14T05:42:43;15.17;77.49
71627;DHT22;59475;52.464;13.590;2023-06-14T05:45:09;15.07;78.10
71627;DHT22;59475;52.464;13.590;2023-06-14T05:47:34;15.07;78.09
71627;DHT22;59475;52.464;13.590;2023-06-14T05:50:00;15.11;78.08
71627;DHT22;59475;52.464;13.590;2023-06-14T05:52:25;15.08;78.03
71627;DHT22;59475;52.464;13.590;2023-06-14T05:54:51;15.12;77.92
71627;DHT22;59475;52.464;13.590;2023-06-14T05:57:17;15.12;77.96
71627;DHT22;59475;52.464;13.590;2023-06-14T05:59:42;15.17;77.86
71627;DHT22;59475;52.464;13.590;2023-06-14T06:02:07;15.24;77.46
71627;DHT22;59475;52.464;13.590;2023-06-14T06:04:33;15.27;77.42
71627;DHT22;59475;52.464;13.590;2023-06-14T06:06:58;15.34;77.43
71627;DHT22;59475;52.464;13.590;2023-06-14T06:09:24;15.34;77.65
71627;DHT22;59475;52.464;13.590;2023-06-14T06:11:49;15.25;77.42
71627;DHT22;59475;52.464;13.590;2023-06-14T06:14:14;15.30;77.49
71627;DHT22;59475;52.464;13.590;2023-06-14T06:16:40;15.25;77.61
71627;DHT22;59475;52.464;13.590;2023-06-14T06:19:05;15.25;77.81
71627;DHT22;59475;52.464;13.590;2023-06-14T06:21:31;15.25;77.71
71627;DHT22;59475;52.464;13.590;2023-06-14T06:23:57;15.17;77.72
71627;DHT22;59475;52.464;13.590;2023-06-14T06:26:22;15.20;77.87
71627;DHT22;59475;52.464;13.590;2023-06-14T06:28:48;15.24;77.84
71627;DHT22;59475;52.464;13.590;2023-06-14T06:31:13;15.27;77.86
71627;DHT22;59475;52.464;13.590;2023-06-14T06:33:39;15.36;77.55
71627;DHT22;59475;52.464;13.590;2023-06-14T06:36:05;15.48;77.38
71627;DHT22;59475;52.464;13.590;2023-06-14T06:38:30;15.56;77.05
71627;DHT22;59475;52.464;13.590;2023-06-14T06:40:56;15.56;76.71
71627;DHT22;59475;52.464;13.590;2023-06-14T06:43:22;15.70;76.29
71627;DHT22;59475;52.464;13.590;2023-06-14T06:45:47;15.83;76.40
71627;DHT22;59475;52.464;13.590;2023-06-14T06:48:13;16.00;75.77
71627;DHT22;59475;52.464;13.590;2023-06-14T06:50:38;16.28;74.97
71627;DHT22;59475;52.464;13.590;2023-06-14T06:53:04;16.54;74.60
71627;DHT22;59475;52.464;13.590;2023-06-14T06:55:30;16.84;73.44
71627;DHT22;59475;52.464;13.590;2023-06-14T06:57:55;17.16;72.75
71627;DHT22;59475;52.464;13.590;2023-06-14T07:00:21;17.35;71.17
71627;DHT22;59475;52.464;13.590;2023-06-14T07:02:46;17.54;70.51
71627;DHT22;59475;52.464;13.590;2023-06-14T07:05:12;17.40;70.23
71627;DHT22;59475;52.464;13.590;2023-06-14T07:07:38;17.26;71.29
71627;DHT22;59475;52.464;13.590;2023-06-14T07:10:04;17.32;71.14
71627;DHT22;59475;52.464;13.590;2023-06-14T07:12:31;17.28;70.56
71627;DHT22;59475;52.464;13.590;2023-06-14T07:14:59;17.41;70.14
71627;DHT22;59475;52.464;13.590;2023-06-14T07:17:25;17.47;70.32
71627;DHT22;59475;52.464;13.590;2023-06-14T07:19:50;17.57;69.51
71627;DHT22;59475;52.464;13.590;2023-06-14T07:22:16;17.97;69.12
71627;DHT22;59475;52.464;13.590;2023-06-14T07:24:43;18.24;67.35
71627;DHT22;59475;52.464;13.590;2023-06-14T07:27:08;18.52;67.46
71627;DHT22;59475;52.464;13.590;2023-06-14T07:29:34;18.61;66.27
71627;DHT22;59475;52.464;13.590;2023-06-14T07:31:59;18.68;66.26
71627;DHT22;59475;52.464;13.590;2023-06-14T07:34:24;18.54;65.67
71627;DHT22;59475;52.464;13.590;2023-06-14T07:36:50;18.52;65.93
71627;DHT22;59475;52.464;13.590;2023-06-14T07:39:16;18.48;66.18
71627;DHT22;59475;52.464;13.590;2023-06-14T07:41:42;18.22;66.53
71627;DHT22;59475;52.464;13.590;2023-06-14T07:44:07;18.30;66.61
71627;DHT22;59475;52.464;13.590;2023-06-14T07:46:32;18.17;66.96
71627;DHT22;59475;52.464;13.590;2023-06-14T07:48:59;18.26;66.95
71627;DHT22;59475;52.464;13.590;2023-06-14T07:51:25;18.34;66.61
71627;DHT22;59475;52.464;13.590;2023-06-14T07:53:50;18.38;66.90
71627;DHT22;59475;52.464;13.590;2023-06-14T07:56:16;18.47;66.85
71627;DHT22;59475;52.464;13.590;2023-06-14T07:58:41;18.34;66.82
71627;DHT22;59475;52.464;13.590;2023-06-14T08:01:08;18.22;67.27
71627;DHT22;59475;52.464;13.590;2023-06-14T08:03:33;18.34;66.92
71627;DHT22;59475;52.464;13.590;2023-06-14T08:05:59;18.34;67.01
71627;DHT22;59475;52.464;13.590;2023-06-14T08:08:26;18.51;66.50
71627;DHT22;59475;52.464;13.590;2023-06-14T08:10:51;18.89;65.96
71627;DHT22;59475;52.464;13.590;2023-06-14T08:13:17;19.27;65.11
71627;DHT22;59475;52.464;13.590;2023-06-14T08:15:42;19.49;63.58
71627;DHT22;59475;52.464;13.590;2023-06-14T08:18:08;19.77;62.66
71627;DHT22;59475;52.464;13.590;2023-06-14T08:20:33;19.82;62.74
71627;DHT22;59475;52.464;13.590;2023-06-14T08:23:00;19.98;62.84
71627;DHT22;59475;52.464;13.590;2023-06-14T08:25:26;19.88;62.69
71627;DHT22;59475;52.464;13.590;2023-06-14T08:27:51;19.54;62.98
71627;DHT22;59475;52.464;13.590;2023-06-14T08:30:16;19.26;63.49
71627;DHT22;59475;52.464;13.590;2023-06-14T08:32:43;19.28;63.56
71627;DHT22;59475;52.464;13.590;2023-06-14T08:35:08;19.38;63.30
71627;DHT22;59475;52.464;13.590;2023-06-14T08:37:38;19.31;62.74
71627;DHT22;59475;52.464;13.590;2023-06-14T08:40:04;19.20;63.07
71627;DHT22;59475;52.464;13.590;2023-06-14T08:42:32;19.13;63.77
71627;DHT22;59475;52.464;13.590;2023-06-14T08:44:57;19.30;63.49
71627;DHT22;59475;52.464;13.590;2023-06-14T08:47:23;19.60;62.68
71627;DHT22;59475;52.464;13.590;2023-06-14T08:49:57;19.79;62.09
71627;DHT22;59475;52.464;13.590;2023-06-14T08:52:26;20.16;60.69
71627;DHT22;59475;52.464;13.590;2023-06-14T08:54:55;20.43;59.12
71627;DHT22;59475;52.464;13.590;2023-06-14T08:57:21;20.53;58.72
71627;DHT22;59475;52.464;13.590;2023-06-14T08:59:47;20.75;58.57
71627;DHT22;59475;52.464;13.590;2023-06-14T09:02:17;20.78;57.97
71627;DHT22;59475;52.464;13.590;2023-06-14T09:04:47;20.98;56.74
71627;DHT22;59475;52.464;13.590;2023-06-14T09:07:14;20.80;57.20
71627;DHT22;59475;52.464;13.590;2023-06-14T09:09:40;21.06;57.13
71627;DHT22;59475;52.464;13.590;2023-06-14T09:12:10;21.16;56.12
71627;DHT22;59475;52.464;13.590;2023-06-14T09:14:36;20.88;57.00
71627;DHT22;59475;52.464;13.590;2023-06-14T09:17:05;20.84;57.24
71627;DHT22;59475;52.464;13.590;2023-06-14T09:19:31;20.91;57.23
71627;DHT22;59475;52.464;13.590;2023-06-14T09:21:56;20.81;57.64
71627;DHT22;59475;52.464;13.590;2023-06-14T09:24:23;20.95;57.92
71627;DHT22;59475;52.464;13.590;2023-06-14T09:26:51;21.09;58.36
71627;DHT22;59475;52.464;13.590;2023-06-14T09:29:16;21.43;56.89
71627;DHT22;59475;52.464;13.590;2023-06-14T09:31:42;21.50;55.74
71627;DHT22;59475;52.464;13.590;2023-06-14T09:34:08;21.35;56.32
71627;DHT22;59475;52.464;13.590;2023-06-14T09:36:34;21.13;55.27
71627;DHT22;59475;52.464;13.590;2023-06-14T09:39:03;20.91;55.83
71627;DHT22;59475;52.464;13.590;2023-06-14T09:41:36;20.73;55.94
71627;DHT22;59475;52.464;13.590;2023-06-14T09:44:03;20.51;57.05
71627;DHT22;59475;52.464;13.590;2023-06-14T09:46:30;20.80;57.22
71627;DHT22;59475;52.464;13.590;2023-06-14T09:48:59;20.80;56.82
71627;DHT22;59475;52.464;13.590;2023-06-14T09:51:26;20.74;56.88
71627;DHT22;59475;52.464;13.590;2023-06-14T09:53:53;20.54;57.47
71627;DHT22;59475;52.464;13.590;2023-06-14T09:56:28;20.46;56.55
71627;DHT22;59475;52.464;13.590;2023-06-14T09:58:56;20.43;56.92
71627;DHT22;59475;52.464;13.590;2023-06-14T10:01:24;20.57;56.70
71627;DHT22;59475;52.464;13.590;2023-06-14T10:04:03;20.33;57.51
71627;DHT22;59475;52.464;13.590;2023-06-14T10:06:29;20.10;58.97
71627;DHT22;59475;52.464;13.590;2023-06-14T10:08:57;20.10;58.44
71627;DHT22;59475;52.464;13.590;2023-06-14T10:11:25;20.20;58.30
71627;DHT22;59475;52.464;13.590;2023-06-14T10:13:51;20.25;58.30
71627;DHT22;59475;52.464;13.590;2023-06-14T10:16:24;20.37;58.00
71627;DHT22;59475;52.464;13.590;2023-06-14T10:19:19;20.54;57.73
71627;DHT22;59475;52.464;13.590;2023-06-14T10:24:59;20.46;57.43
71627;DHT22;59475;52.464;13.590;2023-06-14T10:27:24;20.41;57.69
71627;DHT22;59475;52.464;13.590;2023-06-14T10:32:20;20.29;58.13
71627;DHT22;59475;52.464;13.590;2023-06-14T10:34:45;20.47;58.03
71627;DHT22;59475;52.464;13.590;2023-06-14T10:37:18;20.65;57.34
71627;DHT22;59475;52.464;13.590;2023-06-14T10:39:44;20.80;56.76
71627;DHT22;59475;52.464;13.590;2023-06-14T10:42:14;21.06;56.41
71627;DHT22;59475;52.464;13.590;2023-06-14T10:47:08;21.26;56.46
71627;DHT22;59475;52.464;13.590;2023-06-14T10:52:14;21.38;55.55
71627;DHT22;59475;52.464;13.590;2023-06-14T10:57:35;21.94;54.51
71627;DHT22;59475;52.464;13.590;2023-06-14T11:00:03;22.09;53.96
71627;DHT22;59475;52.464;13.590;2023-06-14T11:05:14;22.25;52.84
71627;DHT22;59475;52.464;13.590;2023-06-14T11:10:39;22.38;52.17
71627;DHT22;59475;52.464;13.590;2023-06-14T11:13:05;22.52;52.75
71627;DHT22;59475;52.464;13.590;2023-06-14T11:15:31;22.57;52.11
71627;DHT22;59475;52.464;13.590;2023-06-14T11:18:00;22.35;52.90
71627;DHT22;59475;52.464;13.590;2023-06-14T11:20:27;22.22;53.00
71627;DHT22;59475;52.464;13.590;2023-06-14T11:22:53;22.18;52.48
71627;DHT22;59475;52.464;13.590;2023-06-14T11:25:19;22.19;52.41
71627;DHT22;59475;52.464;13.590;2023-06-14T11:27:45;22.50;52.05
71627;DHT22;59475;52.464;13.590;2023-06-14T11:30:12;22.59;51.88
71627;DHT22;59475;52.464;13.590;2023-06-14T11:32:38;23.12;51.02
71627;DHT22;59475;52.464;13.590;2023-06-14T11:35:05;22.81;50.53
71627;DHT22;59475;52.464;13.590;2023-06-14T11:37:31;22.63;51.14
71627;DHT22;59475;52.464;13.590;2023-06-14T11:40:01;22.61;50.94
71627;DHT22;59475;52.464;13.590;2023-06-14T11:42:26;22.83;51.46
71627;DHT22;59475;52.464;13.590;2023-06-14T11:44:53;22.91;50.06
71627;DHT22;59475;52.464;13.590;2023-06-14T11:47:18;23.10;50.14
71627;DHT22;59475;52.464;13.590;2023-06-14T11:49:44;23.56;48.76
71627;DHT22;59475;52.464;13.590;2023-06-14T11:52:09;24.37;47.30
71627;DHT22;59475;52.464;13.590;2023-06-14T11:54:36;25.38;45.88
71627;DHT22;59475;52.464;13.590;2023-06-14T11:57:03;26.12;43.70
71627;DHT22;59475;52.464;13.590;2023-06-14T11:59:29;25.75;43.82
71627;DHT22;59475;52.464;13.590;2023-06-14T12:01:56;26.24;43.54
71627;DHT22;59475;52.464;13.590;2023-06-14T12:04:26;26.40;41.67
71627;DHT22;59475;52.464;13.590;2023-06-14T12:06:52;27.07;40.52
71627;DHT22;59475;52.464;13.590;2023-06-14T12:09:18;27.10;39.60
71627;DHT22;59475;52.464;13.590;2023-06-14T12:11:45;26.16;40.34
71627;DHT22;59475;52.464;13.590;2023-06-14T12:14:11;26.36;41.03
71627;DHT22;59475;52.464;13.590;2023-06-14T12:16:40;26.44;40.44
71627;DHT22;59475;52.464;13.590;2023-06-14T12:19:11;25.75;42.08
71627;DHT22;59475;52.464;13.590;2023-06-14T12:21:38;25.75;43.08
71627;DHT22;59475;52.464;13.590;2023-06-14T12:24:07;25.37;42.99
71627;DHT22;59475;52.464;13.590;2023-06-14T12:26:33;24.66;43.26
71627;DHT22;59475;52.464;13.590;2023-06-14T12:28:59;24.31;44.19
71627;DHT22;59475;52.464;13.590;2023-06-14T12:31:24;24.44;44.55
71627;DHT22;59475;52.464;13.590;2023-06-14T12:33:51;24.76;44.33
71627;DHT22;59475;52.464;13.590;2023-06-14T12:36:16;24.89;43.78
71627;DHT22;59475;52.464;13.590;2023-06-14T12:38:42;25.14;43.25
71627;DHT22;59475;52.464;13.590;2023-06-14T12:41:08;25.10;42.84
71627;DHT22;59475;52.464;13.590;2023-06-14T12:43:34;25.24;43.76
71627;DHT22;59475;52.464;13.590;2023-06-14T12:46:00;25.26;43.11
71627;DHT22;59475;52.464;13.590;2023-06-14T12:48:26;25.59;43.28
71627;DHT22;59475;52.464;13.590;2023-06-14T12:50:52;25.84;41.15
71627;DHT22;59475;52.464;13.590;2023-06-14T12:53:18;25.79;41.36
71627;DHT22;59475;52.464;13.590;2023-06-14T12:55:44;24.84;42.91
71627;DHT22;59475;52.464;13.590;2023-06-14T12:58:09;25.11;43.43
71627;DHT22;59475;52.464;13.590;2023-06-14T13:00:37;25.40;42.12
71627;DHT22;59475;52.464;13.590;2023-06-14T13:03:03;25.48;41.35
71627;DHT22;59475;52.464;13.590;2023-06-14T13:05:28;25.21;41.16
71627;DHT22;59475;52.464;13.590;2023-06-14T13:07:53;25.51;40.55
71627;DHT22;59475;52.464;13.590;2023-06-14T13:10:19;25.68;40.67
71627;DHT22;59475;52.464;13.590;2023-06-14T13:12:44;25.90;40.46
71627;DHT22;59475;52.464;13.590;2023-06-14T13:15:10;25.78;40.84
71627;DHT22;59475;52.464;13.590;2023-06-14T13:17:36;25.88;41.68
71627;DHT22;59475;52.464;13.590;2023-06-14T13:20:08;26.03;41.01
71627;DHT22;59475;52.464;13.590;2023-06-14T13:22:34;25.93;40.61
71627;DHT22;59475;52.464;13.590;2023-06-14T13:25:00;25.61;40.78
71627;DHT22;59475;52.464;13.590;2023-06-14T13:27:26;25.41;40.67
71627;DHT22;59475;52.464;13.590;2023-06-14T13:29:52;25.13;40.23
71627;DHT22;59475;52.464;13.590;2023-06-14T13:32:17;24.89;40.67
71627;DHT22;59475;52.464;13.590;2023-06-14T13:34:42;24.72;41.15
71627;DHT22;59475;52.464;13.590;2023-06-14T13:37:08;24.76;42.06
71627;DHT22;59475;52.464;13.590;2023-06-14T13:39:33;24.75;41.76
71627;DHT22;59475;52.464;13.590;2023-06-14T13:41:59;24.45;42.03
71627;DHT22;59475;52.464;13.590;2023-06-14T13:44:24;24.61;41.58
71627;DHT22;59475;52.464;13.590;2023-06-14T13:46:50;24.55;42.37
71627;DHT22;59475;52.464;13.590;2023-06-14T13:49:15;24.80;42.02
71627;DHT22;59475;52.464;13.590;2023-06-14T13:51:41;25.16;40.97
71627;DHT22;59475;52.464;13.590;2023-06-14T13:54:06;25.27;40.64
71627;DHT22;59475;52.464;13.590;2023-06-14T13:56:31;25.48;41.23
71627;DHT22;59475;52.464;13.590;2023-06-14T13:58:57;25.51;40.08
71627;DHT22;59475;52.464;13.590;2023-06-14T14:01:22;25.52;39.58
71627;DHT22;59475;52.464;13.590;2023-06-14T14:03:48;25.48;40.28
71627;DHT22;59475;52.464;13.590;2023-06-14T14:06:15;25.40;40.23
71627;DHT22;59475;52.464;13.590;2023-06-14T14:08:41;25.40;38.89
71627;DHT22;59475;52.464;13.590;2023-06-14T14:11:06;25.44;38.60
71627;DHT22;59475;52.464;13.590;2023-06-14T14:13:33;25.49;37.83
71627;DHT22;59475;52.464;13.590;2023-06-14T14:15:58;25.79;38.52
71627;DHT22;59475;52.464;13.590;2023-06-14T14:18:24;26.03;37.68
71627;DHT22;59475;52.464;13.590;2023-06-14T14:20:49;25.82;37.38
71627;DHT22;59475;52.464;13.590;2023-06-14T14:23:15;25.57;38.43
71627;DHT22;59475;52.464;13.590;2023-06-14T14:25:40;25.62;38.68
71627;DHT22;59475;52.464;13.590;2023-06-14T14:28:06;25.71;38.99
71627;DHT22;59475;52.464;13.590;2023-06-14T14:30:31;25.79;38.06
71627;DHT22;59475;52.464;13.590;2023-06-14T14:32:58;25.92;38.28
71627;DHT22;59475;52.464;13.590;2023-06-14T14:35:23;25.69;38.76
71627;DHT22;59475;52.464;13.590;2023-06-14T14:37:51;25.40;38.43
71627;DHT22;59475;52.464;13.590;2023-06-14T14:40:16;25.13;38.89
71627;DHT22;59475;52.464;13.590;2023-06-14T14:42:42;25.03;38.81
71627;DHT22;59475;52.464;13.590;2023-06-14T14:45:07;25.21;38.46
71627;DHT22;59475;52.464;13.590;2023-06-14T14:47:33;25.40;38.33
71627;DHT22;59475;52.464;13.590;2023-06-14T14:49:58;25.47;37.41
71627;DHT22;59475;52.464;13.590;2023-06-14T14:52:24;25.69;37.55
71627;DHT22;59475;52.464;13.590;2023-06-14T14:54:50;25.95;37.61
71627;DHT22;59475;52.464;13.590;2023-06-14T14:57:15;25.76;37.09
71627;DHT22;59475;52.464;13.590;2023-06-14T14:59:41;25.35;38.41
71627;DHT22;59475;52.464;13.590;2023-06-14T15:02:06;25.38;39.19
71627;DHT22;59475;52.464;13.590;2023-06-14T15:04:32;25.37;39.68
71627;DHT22;59475;52.464;13.590;2023-06-14T15:06:57;25.28;38.45
71627;DHT22;59475;52.464;13.590;2023-06-14T15:09:22;25.28;38.56
71627;DHT22;59475;52.464;13.590;2023-06-14T15:11:48;25.09;37.13
71627;DHT22;59475;52.464;13.590;2023-06-14T15:14:13;25.03;37.03
71627;DHT22;59475;52.464;13.590;2023-06-14T15:16:40;24.90;37.33
71627;DHT22;59475;52.464;13.590;2023-06-14T15:19:06;24.90;37.62
71627;DHT22;59475;52.464;13.590;2023-06-14T15:21:31;24.71;37.19
71627;DHT22;59475;52.464;13.590;2023-06-14T15:23:57;24.75;37.45
71627;DHT22;59475;52.464;13.590;2023-06-14T15:26:22;24.65;37.68
71627;DHT22;59475;52.464;13.590;2023-06-14T15:28:49;24.65;38.25
71627;DHT22;59475;52.464;13.590;2023-06-14T15:31:15;24.73;38.29
71627;DHT22;59475;52.464;13.590;2023-06-14T15:33:40;24.69;38.61
71627;DHT22;59475;52.464;13.590;2023-06-14T15:36:06;24.42;38.49